sensor_id;sensor_type;location;lat;lon;timestamp;P1;durP1;ratioP1;P2;durP2;ratioP2
17852;SDS011;9052;53.494;14.376;2023-04-25T00:00:02;2.70;;;1.20;;
17852;SDS011;9052;53.494;14.376;2023-04-25T00:02:32;2.03;;;1.73;;
17852;SDS011;9052;53.494;14.376;2023-04-25T00:05:01;1.90;;;1.50;;
17852;SDS011;9052;53.494;14.376;2023-04-25T00:07:28;1.40;;;1.30;;
17852;SDS011;9052;53.494;14.376;2023-04-25T00:09:55;1.50;;;1.27;;
17852;SDS011;9052;53.494;14.376;2023-04-25T00:12:21;1.63;;;1.53;;
17852;SDS011;9052;53.494;14.376;2023-04-25T00:14:48;2.10;;;1.47;;
17852;SDS011;9052;53.494;14.376;2023-04-25T00:17:16;1.53;;;1.43;;
17852;SDS011;9052;53.494;14.376;2023-04-25T00:19:44;4.03;;;1.57;;
17852;SDS011;9052;53.494;14.376;2023-04-25T00:22:12;2.53;;;1.30;;
17852;SDS011;9052;53.494;14.376;2023-04-25T00:24:39;1.47;;;1.37;;
17852;SDS011;9052;53.494;14.376;2023-04-25T00:27:06;1.33;;;1.27;;
17852;SDS011;9052;53.494;14.376;2023-04-25T00:29:32;3.93;;;1.57;;
17852;SDS011;9052;53.494;14.376;2023-04-25T00:31:59;2.90;;;1.73;;
17852;SDS011;9052;53.494;14.376;2023-04-25T00:34:26;2.00;;;1.10;;
17852;SDS011;9052;53.494;14.376;2023-04-25T00:36:52;1.10;;;1.10;;
17852;SDS011;9052;53.494;14.376;2023-04-25T00:39:20;4.43;;;1.67;;
17852;SDS011;9052;53.494;14.376;2023-04-25T00:41:47;3.27;;;1.57;;
17852;SDS011;9052;53.494;14.376;2023-04-25T00:44:18;1.63;;;1.30;;
17852;SDS011;9052;53.494;14.376;2023-04-25T00:46:45;3.57;;;1.73;;
17852;SDS011;9052;53.494;14.376;2023-04-25T00:49:12;3.77;;;2.10;;
17852;SDS011;9052;53.494;14.376;2023-04-25T00:51:41;1.50;;;1.40;;
17852;SDS011;9052;53.494;14.376;2023-04-25T00:54:09;2.50;;;2.30;;
17852;SDS011;9052;53.494;14.376;2023-04-25T00:56:37;3.63;;;1.83;;
17852;SDS011;9052;53.494;14.376;2023-04-25T00:59:04;1.77;;;1.67;;
17852;SDS011;9052;53.494;14.376;2023-04-25T01:01:30;2.57;;;1.53;;
17852;SDS011;9052;53.494;14.376;2023-04-25T01:03:58;2.33;;;1.83;;
17852;SDS011;9052;53.494;14.376;2023-04-25T01:06:25;7.93;;;2.00;;
17852;SDS011;9052;53.494;14.376;2023-04-25T01:08:52;1.60;;;1.50;;
17852;SDS011;9052;53.494;14.376;2023-04-25T01:11:19;1.83;;;1.73;;
17852;SDS011;9052;53.494;14.376;2023-04-25T01:13:47;2.27;;;2.13;;
17852;SDS011;9052;53.494;14.376;2023-04-25T01:16:14;2.20;;;2.10;;
17852;SDS011;9052;53.494;14.376;2023-04-25T01:18:41;2.90;;;2.20;;
17852;SDS011;9052;53.494;14.376;2023-04-25T01:21:09;3.23;;;2.33;;
17852;SDS011;9052;53.494;14.376;2023-04-25T01:23:36;2.70;;;2.13;;
17852;SDS011;9052;53.494;14.376;2023-04-25T01:26:03;2.60;;;2.00;;
17852;SDS011;9052;53.494;14.376;2023-04-25T01:28:30;4.30;;;2.30;;
17852;SDS011;9052;53.494;14.376;2023-04-25T01:30:58;3.47;;;2.37;;
17852;SDS011;9052;53.494;14.376;2023-04-25T01:33:24;3.13;;;2.43;;
17852;SDS011;9052;53.494;14.376;2023-04-25T01:35:51;4.43;;;2.40;;
17852;SDS011;9052;53.494;14.376;2023-04-25T01:38:19;3.37;;;2.57;;
17852;SDS011;9052;53.494;14.376;2023-04-25T01:40:46;4.13;;;2.30;;
17852;SDS011;9052;53.494;14.376;2023-04-25T01:43:13;4.10;;;2.43;;
17852;SDS011;9052;53.494;14.376;2023-04-25T01:45:39;3.40;;;2.53;;
17852;SDS011;9052;53.494;14.376;2023-04-25T01:48:06;6.63;;;2.40;;
17852;SDS011;9052;53.494;14.376;2023-04-25T01:50:33;5.80;;;2.60;;
17852;SDS011;9052;53.494;14.376;2023-04-25T01:53:00;2.50;;;1.50;;
17852;SDS011;9052;53.494;14.376;2023-04-25T01:55:28;5.57;;;2.97;;
17852;SDS011;9052;53.494;14.376;2023-04-25T01:57:55;3.17;;;2.90;;
17852;SDS011;9052;53.494;14.376;2023-04-25T02:00:22;6.20;;;3.23;;
17852;SDS011;9052;53.494;14.376;2023-04-25T02:02:48;4.40;;;2.90;;
17852;SDS011;9052;53.494;14.376;2023-04-25T02:05:15;3.20;;;2.20;;
17852;SDS011;9052;53.494;14.376;2023-04-25T02:07:42;3.10;;;2.80;;
17852;SDS011;9052;53.494;14.376;2023-04-25T02:10:09;4.20;;;2.70;;
17852;SDS011;9052;53.494;14.376;2023-04-25T02:12:37;4.70;;;2.37;;
17852;SDS011;9052;53.494;14.376;2023-04-25T02:15:04;7.40;;;2.77;;
17852;SDS011;9052;53.494;14.376;2023-04-25T02:17:31;2.90;;;2.57;;
17852;SDS011;9052;53.494;14.376;2023-04-25T02:19:58;2.73;;;2.53;;
17852;SDS011;9052;53.494;14.376;2023-04-25T02:22:25;6.00;;;2.10;;
17852;SDS011;9052;53.494;14.376;2023-04-25T02:24:54;2.20;;;2.10;;
17852;SDS011;9052;53.494;14.376;2023-04-25T02:27:21;6.97;;;3.00;;
17852;SDS011;9052;53.494;14.376;2023-04-25T02:29:49;4.53;;;2.73;;
17852;SDS011;9052;53.494;14.376;2023-04-25T02:32:15;3.20;;;2.90;;
17852;SDS011;9052;53.494;14.376;2023-04-25T02:34:42;4.10;;;2.93;;
17852;SDS011;9052;53.494;14.376;2023-04-25T02:37:08;3.10;;;2.07;;
17852;SDS011;9052;53.494;14.376;2023-04-25T02:39:35;3.30;;;2.93;;
17852;SDS011;9052;53.494;14.376;2023-04-25T02:42:02;4.60;;;2.70;;
17852;SDS011;9052;53.494;14.376;2023-04-25T02:44:28;5.83;;;2.97;;
17852;SDS011;9052;53.494;14.376;2023-04-25T02:46:56;2.80;;;2.57;;
17852;SDS011;9052;53.494;14.376;2023-04-25T02:49:23;8.03;;;2.60;;
17852;SDS011;9052;53.494;14.376;2023-04-25T02:51:50;2.80;;;2.30;;
17852;SDS011;9052;53.494;14.376;2023-04-25T02:54:16;6.83;;;2.50;;
17852;SDS011;9052;53.494;14.376;2023-04-25T02:56:43;9.07;;;1.80;;
17852;SDS011;9052;53.494;14.376;2023-04-25T02:59:10;5.07;;;2.50;;
17852;SDS011;9052;53.494;14.376;2023-04-25T03:01:36;4.50;;;2.33;;
17852;SDS011;9052;53.494;14.376;2023-04-25T03:04:04;2.77;;;2.57;;
17852;SDS011;9052;53.494;14.376;2023-04-25T03:06:31;6.70;;;3.07;;
17852;SDS011;9052;53.494;14.376;2023-04-25T03:08:57;2.97;;;1.97;;
17852;SDS011;9052;53.494;14.376;2023-04-25T03:11:25;2.63;;;2.03;;
17852;SDS011;9052;53.494;14.376;2023-04-25T03:13:51;2.73;;;2.17;;
17852;SDS011;9052;53.494;14.376;2023-04-25T03:16:18;2.70;;;2.50;;
17852;SDS011;9052;53.494;14.376;2023-04-25T03:18:45;3.37;;;2.97;;
17852;SDS011;9052;53.494;14.376;2023-04-25T03:21:13;8.50;;;2.20;;
17852;SDS011;9052;53.494;14.376;2023-04-25T03:23:39;9.93;;;2.83;;
17852;SDS011;9052;53.494;14.376;2023-04-25T03:26:06;2.50;;;2.20;;
17852;SDS011;9052;53.494;14.376;2023-04-25T03:28:32;3.30;;;3.00;;
17852;SDS011;9052;53.494;14.376;2023-04-25T03:30:59;4.47;;;3.20;;
17852;SDS011;9052;53.494;14.376;2023-04-25T03:33:26;4.87;;;2.33;;
17852;SDS011;9052;53.494;14.376;2023-04-25T03:35:52;5.00;;;2.90;;
17852;SDS011;9052;53.494;14.376;2023-04-25T03:38:20;4.10;;;2.30;;
17852;SDS011;9052;53.494;14.376;2023-04-25T03:40:47;6.20;;;3.20;;
17852;SDS011;9052;53.494;14.376;2023-04-25T03:43:13;6.47;;;3.53;;
17852;SDS011;9052;53.494;14.376;2023-04-25T03:45:40;2.73;;;2.43;;
17852;SDS011;9052;53.494;14.376;2023-04-25T03:48:07;6.87;;;3.80;;
17852;SDS011;9052;53.494;14.376;2023-04-25T03:50:33;4.30;;;3.90;;
17852;SDS011;9052;53.494;14.376;2023-04-25T03:53:00;3.33;;;3.10;;
17852;SDS011;9052;53.494;14.376;2023-04-25T03:55:29;9.03;;;3.10;;
17852;SDS011;9052;53.494;14.376;2023-04-25T03:57:57;3.60;;;3.20;;
17852;SDS011;9052;53.494;14.376;2023-04-25T04:00:24;9.30;;;3.60;;
17852;SDS011;9052;53.494;14.376;2023-04-25T04:02:50;11.73;;;2.80;;
17852;SDS011;9052;53.494;14.376;2023-04-25T04:05:17;5.67;;;3.50;;
17852;SDS011;9052;53.494;14.376;2023-04-25T04:07:44;5.83;;;3.63;;
17852;SDS011;9052;53.494;14.376;2023-04-25T04:10:10;10.57;;;4.80;;
17852;SDS011;9052;53.494;14.376;2023-04-25T04:12:38;7.33;;;3.60;;
17852;SDS011;9052;53.494;14.376;2023-04-25T04:15:05;6.10;;;3.70;;
17852;SDS011;9052;53.494;14.376;2023-04-25T04:17:32;5.83;;;4.07;;
17852;SDS011;9052;53.494;14.376;2023-04-25T04:19:59;14.57;;;4.73;;
17852;SDS011;9052;53.494;14.376;2023-04-25T04:22:25;10.30;;;3.70;;
17852;SDS011;9052;53.494;14.376;2023-04-25T04:24:52;8.47;;;4.07;;
17852;SDS011;9052;53.494;14.376;2023-04-25T04:27:19;7.90;;;3.73;;
17852;SDS011;9052;53.494;14.376;2023-04-25T04:29:48;5.47;;;3.87;;
17852;SDS011;9052;53.494;14.376;2023-04-25T04:32:15;4.50;;;3.10;;
17852;SDS011;9052;53.494;14.376;2023-04-25T04:34:42;13.13;;;3.63;;
17852;SDS011;9052;53.494;14.376;2023-04-25T04:37:09;5.00;;;3.27;;
17852;SDS011;9052;53.494;14.376;2023-04-25T04:39:38;4.43;;;3.23;;
17852;SDS011;9052;53.494;14.376;2023-04-25T04:42:04;10.67;;;3.60;;
17852;SDS011;9052;53.494;14.376;2023-04-25T04:44:32;3.97;;;3.03;;
17852;SDS011;9052;53.494;14.376;2023-04-25T04:47:01;7.67;;;3.77;;
17852;SDS011;9052;53.494;14.376;2023-04-25T04:49:28;7.33;;;2.53;;
17852;SDS011;9052;53.494;14.376;2023-04-25T04:51:55;4.40;;;3.40;;
17852;SDS011;9052;53.494;14.376;2023-04-25T04:54:22;7.60;;;3.70;;
17852;SDS011;9052;53.494;14.376;2023-04-25T04:56:48;4.63;;;3.13;;
17852;SDS011;9052;53.494;14.376;2023-04-25T04:59:17;18.23;;;4.60;;
17852;SDS011;9052;53.494;14.376;2023-04-25T05:01:44;6.20;;;4.17;;
17852;SDS011;9052;53.494;14.376;2023-04-25T05:04:13;14.67;;;3.67;;
17852;SDS011;9052;53.494;14.376;2023-04-25T05:06:39;5.60;;;3.00;;
17852;SDS011;9052;53.494;14.376;2023-04-25T05:09:06;5.07;;;3.00;;
17852;SDS011;9052;53.494;14.376;2023-04-25T05:11:33;7.20;;;3.73;;
17852;SDS011;9052;53.494;14.376;2023-04-25T05:13:59;6.97;;;3.67;;
17852;SDS011;9052;53.494;14.376;2023-04-25T05:16:26;10.27;;;3.70;;
17852;SDS011;9052;53.494;14.376;2023-04-25T05:18:53;5.50;;;2.67;;
17852;SDS011;9052;53.494;14.376;2023-04-25T05:21:21;4.40;;;3.00;;
17852;SDS011;9052;53.494;14.376;2023-04-25T05:23:47;4.70;;;2.60;;
17852;SDS011;9052;53.494;14.376;2023-04-25T05:26:14;13.20;;;2.73;;
17852;SDS011;9052;53.494;14.376;2023-04-25T05:28:41;8.30;;;2.70;;
17852;SDS011;9052;53.494;14.376;2023-04-25T05:31:09;9.27;;;2.80;;
17852;SDS011;9052;53.494;14.376;2023-04-25T05:33:36;9.80;;;3.43;;
17852;SDS011;9052;53.494;14.376;2023-04-25T05:36:02;7.40;;;3.30;;
17852;SDS011;9052;53.494;14.376;2023-04-25T05:38:30;18.87;;;3.73;;
17852;SDS011;9052;53.494;14.376;2023-04-25T05:40:57;5.07;;;3.10;;
17852;SDS011;9052;53.494;14.376;2023-04-25T05:43:23;6.17;;;2.90;;
17852;SDS011;9052;53.494;14.376;2023-04-25T05:45:50;2.80;;;2.23;;
17852;SDS011;9052;53.494;14.376;2023-04-25T05:48:17;5.60;;;2.33;;
17852;SDS011;9052;53.494;14.376;2023-04-25T05:50:43;5.40;;;3.17;;
17852;SDS011;9052;53.494;14.376;2023-04-25T05:53:10;6.80;;;2.87;;
17852;SDS011;9052;53.494;14.376;2023-04-25T05:55:38;7.07;;;3.47;;
17852;SDS011;9052;53.494;14.376;2023-04-25T05:58:04;4.97;;;2.67;;
17852;SDS011;9052;53.494;14.376;2023-04-25T06:00:31;3.97;;;2.60;;
17852;SDS011;9052;53.494;14.376;2023-04-25T06:02:58;5.17;;;2.17;;
17852;SDS011;9052;53.494;14.376;2023-04-25T06:05:25;4.63;;;2.47;;
17852;SDS011;9052;53.494;14.376;2023-04-25T06:07:51;3.23;;;2.37;;
17852;SDS011;9052;53.494;14.376;2023-04-25T06:10:18;4.20;;;2.70;;
17852;SDS011;9052;53.494;14.376;2023-04-25T06:12:46;8.20;;;3.40;;
17852;SDS011;9052;53.494;14.376;2023-04-25T06:15:13;5.63;;;2.20;;
17852;SDS011;9052;53.494;14.376;2023-04-25T06:17:40;6.63;;;3.80;;
17852;SDS011;9052;53.494;14.376;2023-04-25T06:20:07;8.63;;;2.87;;
17852;SDS011;9052;53.494;14.376;2023-04-25T06:22:34;3.00;;;2.30;;
17852;SDS011;9052;53.494;14.376;2023-04-25T06:25:01;9.73;;;3.20;;
17852;SDS011;9052;53.494;14.376;2023-04-25T06:27:29;8.33;;;3.30;;
17852;SDS011;9052;53.494;14.376;2023-04-25T06:29:57;10.77;;;3.80;;
17852;SDS011;9052;53.494;14.376;2023-04-25T06:32:24;14.83;;;3.40;;
17852;SDS011;9052;53.494;14.376;2023-04-25T06:34:52;3.50;;;3.20;;
17852;SDS011;9052;53.494;14.376;2023-04-25T06:37:19;7.20;;;3.77;;
17852;SDS011;9052;53.494;14.376;2023-04-25T06:39:46;4.60;;;3.63;;
17852;SDS011;9052;53.494;14.376;2023-04-25T06:42:12;6.20;;;3.33;;
17852;SDS011;9052;53.494;14.376;2023-04-25T06:44:39;5.50;;;4.13;;
17852;SDS011;9052;53.494;14.376;2023-04-25T06:47:07;8.77;;;4.20;;
17852;SDS011;9052;53.494;14.376;2023-04-25T06:49:33;10.93;;;4.57;;
17852;SDS011;9052;53.494;14.376;2023-04-25T06:52:00;7.90;;;3.97;;
17852;SDS011;9052;53.494;14.376;2023-04-25T06:54:27;7.03;;;3.40;;
17852;SDS011;9052;53.494;14.376;2023-04-25T06:56:54;6.33;;;3.73;;
17852;SDS011;9052;53.494;14.376;2023-04-25T06:59:22;6.77;;;3.53;;
17852;SDS011;9052;53.494;14.376;2023-04-25T07:01:48;6.53;;;3.67;;
17852;SDS011;9052;53.494;14.376;2023-04-25T07:04:16;7.47;;;4.07;;
17852;SDS011;9052;53.494;14.376;2023-04-25T07:06:43;3.63;;;3.10;;
17852;SDS011;9052;53.494;14.376;2023-04-25T07:09:09;5.23;;;3.57;;
17852;SDS011;9052;53.494;14.376;2023-04-25T07:11:36;7.20;;;3.43;;
17852;SDS011;9052;53.494;14.376;2023-04-25T07:14:03;4.33;;;3.20;;
17852;SDS011;9052;53.494;14.376;2023-04-25T07:16:29;12.03;;;3.03;;
17852;SDS011;9052;53.494;14.376;2023-04-25T07:18:56;5.57;;;3.03;;
17852;SDS011;9052;53.494;14.376;2023-04-25T07:21:24;9.00;;;2.77;;
17852;SDS011;9052;53.494;14.376;2023-04-25T07:23:51;7.10;;;3.43;;
17852;SDS011;9052;53.494;14.376;2023-04-25T07:26:18;6.57;;;3.07;;
17852;SDS011;9052;53.494;14.376;2023-04-25T07:28:45;9.80;;;3.73;;
17852;SDS011;9052;53.494;14.376;2023-04-25T07:31:14;7.87;;;3.80;;
17852;SDS011;9052;53.494;14.376;2023-04-25T07:33:43;5.50;;;3.80;;
17852;SDS011;9052;53.494;14.376;2023-04-25T07:36:09;9.97;;;3.63;;
17852;SDS011;9052;53.494;14.376;2023-04-25T07:38:37;6.70;;;4.40;;
17852;SDS011;9052;53.494;14.376;2023-04-25T07:41:04;9.33;;;3.43;;
17852;SDS011;9052;53.494;14.376;2023-04-25T07:43:30;11.13;;;3.80;;
17852;SDS011;9052;53.494;14.376;2023-04-25T07:45:57;7.50;;;3.57;;
17852;SDS011;9052;53.494;14.376;2023-04-25T07:48:23;5.03;;;3.90;;
17852;SDS011;9052;53.494;14.376;2023-04-25T07:50:50;6.10;;;3.83;;
17852;SDS011;9052;53.494;14.376;2023-04-25T07:53:16;13.67;;;4.63;;
17852;SDS011;9052;53.494;14.376;2023-04-25T07:55:45;6.40;;;3.67;;
17852;SDS011;9052;53.494;14.376;2023-04-25T07:58:11;5.30;;;3.43;;
17852;SDS011;9052;53.494;14.376;2023-04-25T08:00:38;7.87;;;3.33;;
17852;SDS011;9052;53.494;14.376;2023-04-25T08:03:06;8.90;;;5.10;;
17852;SDS011;9052;53.494;14.376;2023-04-25T08:05:33;18.03;;;5.13;;
17852;SDS011;9052;53.494;14.376;2023-04-25T08:07:59;19.90;;;4.20;;
17852;SDS011;9052;53.494;14.376;2023-04-25T08:10:27;11.03;;;4.03;;
17852;SDS011;9052;53.494;14.376;2023-04-25T08:12:55;10.90;;;3.93;;
17852;SDS011;9052;53.494;14.376;2023-04-25T08:15:21;18.53;;;3.90;;
17852;SDS011;9052;53.494;14.376;2023-04-25T08:17:48;16.33;;;4.83;;
17852;SDS011;9052;53.494;14.376;2023-04-25T08:20:15;23.17;;;4.13;;
17852;SDS011;9052;53.494;14.376;2023-04-25T08:22:41;14.93;;;4.33;;
17852;SDS011;9052;53.494;14.376;2023-04-25T08:25:08;7.90;;;3.87;;
17852;SDS011;9052;53.494;14.376;2023-04-25T08:27:35;22.80;;;3.67;;
17852;SDS011;9052;53.494;14.376;2023-04-25T08:30:03;13.77;;;3.90;;
17852;SDS011;9052;53.494;14.376;2023-04-25T08:32:30;10.63;;;3.17;;
17852;SDS011;9052;53.494;14.376;2023-04-25T08:34:57;15.27;;;4.00;;
17852;SDS011;9052;53.494;14.376;2023-04-25T08:37:23;26.03;;;4.60;;
17852;SDS011;9052;53.494;14.376;2023-04-25T08:39:50;10.50;;;3.80;;
17852;SDS011;9052;53.494;14.376;2023-04-25T08:42:18;18.80;;;4.77;;
17852;SDS011;9052;53.494;14.376;2023-04-25T08:44:45;15.70;;;3.57;;
17852;SDS011;9052;53.494;14.376;2023-04-25T08:47:15;22.83;;;4.43;;
17852;SDS011;9052;53.494;14.376;2023-04-25T08:49:43;9.70;;;3.63;;
17852;SDS011;9052;53.494;14.376;2023-04-25T08:52:11;15.73;;;3.33;;
17852;SDS011;9052;53.494;14.376;2023-04-25T08:54:40;24.07;;;3.97;;
17852;SDS011;9052;53.494;14.376;2023-04-25T08:57:08;9.17;;;3.43;;
17852;SDS011;9052;53.494;14.376;2023-04-25T08:59:35;11.97;;;3.30;;
17852;SDS011;9052;53.494;14.376;2023-04-25T09:02:04;16.83;;;3.33;;
17852;SDS011;9052;53.494;14.376;2023-04-25T09:04:31;18.63;;;3.67;;
17852;SDS011;9052;53.494;14.376;2023-04-25T09:06:58;16.93;;;3.10;;
17852;SDS011;9052;53.494;14.376;2023-04-25T09:09:25;8.97;;;3.70;;
17852;SDS011;9052;53.494;14.376;2023-04-25T09:11:51;13.37;;;4.03;;
17852;SDS011;9052;53.494;14.376;2023-04-25T09:14:22;11.50;;;4.03;;
17852;SDS011;9052;53.494;14.376;2023-04-25T09:16:57;12.30;;;3.80;;
17852;SDS011;9052;53.494;14.376;2023-04-25T09:19:25;16.07;;;3.43;;
17852;SDS011;9052;53.494;14.376;2023-04-25T09:21:55;7.00;;;3.20;;
17852;SDS011;9052;53.494;14.376;2023-04-25T09:24:29;12.57;;;3.67;;
17852;SDS011;9052;53.494;14.376;2023-04-25T09:26:56;8.27;;;2.87;;
17852;SDS011;9052;53.494;14.376;2023-04-25T09:29:28;11.67;;;4.00;;
17852;SDS011;9052;53.494;14.376;2023-04-25T09:31:57;12.20;;;3.50;;
17852;SDS011;9052;53.494;14.376;2023-04-25T09:34:38;8.17;;;3.23;;
17852;SDS011;9052;53.494;14.376;2023-04-25T09:37:06;9.50;;;2.93;;
17852;SDS011;9052;53.494;14.376;2023-04-25T09:39:33;7.70;;;3.00;;
17852;SDS011;9052;53.494;14.376;2023-04-25T09:42:00;11.73;;;3.70;;
17852;SDS011;9052;53.494;14.376;2023-04-25T09:44:26;15.27;;;5.27;;
17852;SDS011;9052;53.494;14.376;2023-04-25T09:46:53;17.50;;;3.90;;
17852;SDS011;9052;53.494;14.376;2023-04-25T09:49:20;11.20;;;3.23;;
17852;SDS011;9052;53.494;14.376;2023-04-25T09:51:53;9.93;;;2.90;;
17852;SDS011;9052;53.494;14.376;2023-04-25T09:54:21;12.17;;;3.77;;
17852;SDS011;9052;53.494;14.376;2023-04-25T09:56:48;9.87;;;3.63;;
17852;SDS011;9052;53.494;14.376;2023-04-25T09:59:14;12.13;;;3.27;;
17852;SDS011;9052;53.494;14.376;2023-04-25T10:01:41;9.20;;;2.37;;
17852;SDS011;9052;53.494;14.376;2023-04-25T10:04:10;10.90;;;2.67;;
17852;SDS011;9052;53.494;14.376;2023-04-25T10:06:37;8.40;;;2.43;;
17852;SDS011;9052;53.494;14.376;2023-04-25T10:09:04;14.00;;;3.10;;
17852;SDS011;9052;53.494;14.376;2023-04-25T10:11:34;6.90;;;2.50;;
17852;SDS011;9052;53.494;14.376;2023-04-25T10:14:01;6.83;;;2.90;;
17852;SDS011;9052;53.494;14.376;2023-04-25T10:16:27;6.13;;;2.83;;
17852;SDS011;9052;53.494;14.376;2023-04-25T10:18:55;15.43;;;4.10;;
17852;SDS011;9052;53.494;14.376;2023-04-25T10:21:22;11.10;;;3.60;;
17852;SDS011;9052;53.494;14.376;2023-04-25T10:23:49;14.60;;;3.20;;
17852;SDS011;9052;53.494;14.376;2023-04-25T10:26:15;4.67;;;2.80;;
17852;SDS011;9052;53.494;14.376;2023-04-25T10:28:56;9.00;;;3.07;;
17852;SDS011;9052;53.494;14.376;2023-04-25T10:31:23;9.10;;;3.43;;
17852;SDS011;9052;53.494;14.376;2023-04-25T10:33:49;12.03;;;3.70;;
17852;SDS011;9052;53.494;14.376;2023-04-25T10:36:18;19.13;;;3.57;;
17852;SDS011;9052;53.494;14.376;2023-04-25T10:38:47;14.30;;;3.87;;
17852;SDS011;9052;53.494;14.376;2023-04-25T10:41:15;8.93;;;3.20;;
17852;SDS011;9052;53.494;14.376;2023-04-25T10:43:43;15.63;;;4.60;;
17852;SDS011;9052;53.494;14.376;2023-04-25T10:46:16;12.23;;;2.60;;
17852;SDS011;9052;53.494;14.376;2023-04-25T10:48:47;15.70;;;2.63;;
17852;SDS011;9052;53.494;14.376;2023-04-25T10:51:18;7.73;;;2.67;;
17852;SDS011;9052;53.494;14.376;2023-04-25T10:53:45;7.50;;;3.03;;
17852;SDS011;9052;53.494;14.376;2023-04-25T10:56:11;8.53;;;2.83;;
17852;SDS011;9052;53.494;14.376;2023-04-25T10:58:42;15.77;;;2.23;;
17852;SDS011;9052;53.494;14.376;2023-04-25T11:01:08;14.00;;;3.47;;
17852;SDS011;9052;53.494;14.376;2023-04-25T11:03:39;13.90;;;3.90;;
17852;SDS011;9052;53.494;14.376;2023-04-25T11:06:06;11.63;;;2.97;;
17852;SDS011;9052;53.494;14.376;2023-04-25T11:08:38;6.30;;;2.87;;
17852;SDS011;9052;53.494;14.376;2023-04-25T11:11:09;5.20;;;2.60;;
17852;SDS011;9052;53.494;14.376;2023-04-25T11:13:36;16.03;;;3.13;;
17852;SDS011;9052;53.494;14.376;2023-04-25T11:16:03;6.50;;;1.80;;
17852;SDS011;9052;53.494;14.376;2023-04-25T11:18:29;4.40;;;2.20;;
17852;SDS011;9052;53.494;14.376;2023-04-25T11:20:59;5.40;;;2.13;;
17852;SDS011;9052;53.494;14.376;2023-04-25T11:23:26;9.80;;;2.40;;
17852;SDS011;9052;53.494;14.376;2023-04-25T11:25:52;7.43;;;2.63;;
17852;SDS011;9052;53.494;14.376;2023-04-25T11:28:20;14.23;;;2.87;;
17852;SDS011;9052;53.494;14.376;2023-04-25T11:30:47;6.60;;;2.40;;
17852;SDS011;9052;53.494;14.376;2023-04-25T11:33:15;4.30;;;1.97;;
17852;SDS011;9052;53.494;14.376;2023-04-25T11:35:42;7.23;;;2.37;;
17852;SDS011;9052;53.494;14.376;2023-04-25T11:38:10;9.00;;;2.13;;
17852;SDS011;9052;53.494;14.376;2023-04-25T11:40:36;11.20;;;3.13;;
17852;SDS011;9052;53.494;14.376;2023-04-25T11:43:03;15.10;;;2.47;;
17852;SDS011;9052;53.494;14.376;2023-04-25T11:45:29;6.77;;;2.50;;
17852;SDS011;9052;53.494;14.376;2023-04-25T11:47:56;10.37;;;2.30;;
17852;SDS011;9052;53.494;14.376;2023-04-25T11:50:23;10.93;;;2.80;;
17852;SDS011;9052;53.494;14.376;2023-04-25T11:52:49;10.10;;;2.63;;
17852;SDS011;9052;53.494;14.376;2023-04-25T11:55:19;4.93;;;1.53;;
17852;SDS011;9052;53.494;14.376;2023-04-25T11:57:47;9.83;;;2.30;;
17852;SDS011;9052;53.494;14.376;2023-04-25T12:00:16;12.50;;;2.87;;
17852;SDS011;9052;53.494;14.376;2023-04-25T12:02:44;8.43;;;2.40;;
17852;SDS011;9052;53.494;14.376;2023-04-25T12:05:13;4.90;;;2.00;;
17852;SDS011;9052;53.494;14.376;2023-04-25T12:07:40;4.80;;;2.23;;
17852;SDS011;9052;53.494;14.376;2023-04-25T12:10:08;11.20;;;2.87;;
17852;SDS011;9052;53.494;14.376;2023-04-25T12:12:36;7.83;;;3.13;;
17852;SDS011;9052;53.494;14.376;2023-04-25T12:15:10;11.23;;;2.37;;
17852;SDS011;9052;53.494;14.376;2023-04-25T12:17:40;11.20;;;2.60;;
17852;SDS011;9052;53.494;14.376;2023-04-25T12:20:08;9.93;;;3.23;;
17852;SDS011;9052;53.494;14.376;2023-04-25T12:22:34;8.00;;;2.50;;
17852;SDS011;9052;53.494;14.376;2023-04-25T12:25:01;3.73;;;1.70;;
17852;SDS011;9052;53.494;14.376;2023-04-25T12:27:30;8.17;;;2.23;;
17852;SDS011;9052;53.494;14.376;2023-04-25T12:29:58;10.47;;;2.23;;
17852;SDS011;9052;53.494;14.376;2023-04-25T12:32:25;11.83;;;2.50;;
17852;SDS011;9052;53.494;14.376;2023-04-25T12:34:52;2.97;;;2.07;;
17852;SDS011;9052;53.494;14.376;2023-04-25T12:37:18;11.53;;;2.73;;
17852;SDS011;9052;53.494;14.376;2023-04-25T12:39:45;4.87;;;1.83;;
17852;SDS011;9052;53.494;14.376;2023-04-25T12:42:11;10.00;;;2.10;;
17852;SDS011;9052;53.494;14.376;2023-04-25T12:44:38;10.10;;;1.87;;
17852;SDS011;9052;53.494;14.376;2023-04-25T12:47:06;7.67;;;1.93;;
17852;SDS011;9052;53.494;14.376;2023-04-25T12:49:33;7.33;;;2.03;;
17852;SDS011;9052;53.494;14.376;2023-04-25T12:51:59;9.80;;;3.00;;
17852;SDS011;9052;53.494;14.376;2023-04-25T12:54:26;8.53;;;2.90;;
17852;SDS011;9052;53.494;14.376;2023-04-25T12:56:53;10.73;;;2.13;;
17852;SDS011;9052;53.494;14.376;2023-04-25T12:59:20;5.50;;;2.33;;
17852;SDS011;9052;53.494;14.376;2023-04-25T13:01:46;7.30;;;1.80;;
17852;SDS011;9052;53.494;14.376;2023-04-25T13:04:14;5.33;;;2.33;;
17852;SDS011;9052;53.494;14.376;2023-04-25T13:06:41;11.83;;;2.20;;
17852;SDS011;9052;53.494;14.376;2023-04-25T13:09:08;7.80;;;1.90;;
17852;SDS011;9052;53.494;14.376;2023-04-25T13:11:37;11.50;;;3.00;;
17852;SDS011;9052;53.494;14.376;2023-04-25T13:14:04;7.20;;;2.30;;
17852;SDS011;9052;53.494;14.376;2023-04-25T13:16:31;21.07;;;2.97;;
17852;SDS011;9052;53.494;14.376;2023-04-25T13:18:58;9.23;;;2.23;;
17852;SDS011;9052;53.494;14.376;2023-04-25T13:21:26;6.27;;;2.43;;
17852;SDS011;9052;53.494;14.376;2023-04-25T13:23:52;9.00;;;1.90;;
17852;SDS011;9052;53.494;14.376;2023-04-25T13:26:19;9.67;;;2.27;;
17852;SDS011;9052;53.494;14.376;2023-04-25T13:28:46;10.00;;;2.17;;
17852;SDS011;9052;53.494;14.376;2023-04-25T13:31:12;12.63;;;3.00;;
17852;SDS011;9052;53.494;14.376;2023-04-25T13:33:39;25.70;;;2.77;;
17852;SDS011;9052;53.494;14.376;2023-04-25T13:36:05;24.03;;;3.23;;
17852;SDS011;9052;53.494;14.376;2023-04-25T13:38:33;3.90;;;2.10;;
17852;SDS011;9052;53.494;14.376;2023-04-25T13:41:00;12.80;;;2.50;;
17852;SDS011;9052;53.494;14.376;2023-04-25T13:43:26;5.10;;;2.17;;
17852;SDS011;9052;53.494;14.376;2023-04-25T13:45:53;5.67;;;2.10;;
17852;SDS011;9052;53.494;14.376;2023-04-25T13:48:20;14.03;;;3.77;;
17852;SDS011;9052;53.494;14.376;2023-04-25T13:50:47;10.77;;;3.00;;
17852;SDS011;9052;53.494;14.376;2023-04-25T13:53:14;7.67;;;2.00;;
17852;SDS011;9052;53.494;14.376;2023-04-25T13:55:42;10.30;;;2.87;;
17852;SDS011;9052;53.494;14.376;2023-04-25T13:58:08;6.30;;;2.70;;
17852;SDS011;9052;53.494;14.376;2023-04-25T14:00:36;10.03;;;2.83;;
17852;SDS011;9052;53.494;14.376;2023-04-25T14:03:04;16.07;;;3.60;;
17852;SDS011;9052;53.494;14.376;2023-04-25T14:05:32;14.60;;;3.33;;
17852;SDS011;9052;53.494;14.376;2023-04-25T14:08:02;9.33;;;3.00;;
17852;SDS011;9052;53.494;14.376;2023-04-25T14:10:29;9.87;;;3.50;;
17852;SDS011;9052;53.494;14.376;2023-04-25T14:12:57;11.40;;;2.00;;
17852;SDS011;9052;53.494;14.376;2023-04-25T14:15:24;6.67;;;2.53;;
17852;SDS011;9052;53.494;14.376;2023-04-25T14:17:50;9.40;;;2.83;;
17852;SDS011;9052;53.494;14.376;2023-04-25T14:20:17;13.90;;;2.90;;
17852;SDS011;9052;53.494;14.376;2023-04-25T14:22:45;4.97;;;1.90;;
17852;SDS011;9052;53.494;14.376;2023-04-25T14:25:12;4.87;;;1.53;;
17852;SDS011;9052;53.494;14.376;2023-04-25T14:27:38;8.90;;;2.57;;
17852;SDS011;9052;53.494;14.376;2023-04-25T14:30:07;6.50;;;1.97;;
17852;SDS011;9052;53.494;14.376;2023-04-25T14:32:34;8.07;;;2.40;;
17852;SDS011;9052;53.494;14.376;2023-04-25T14:35:01;10.33;;;2.60;;
17852;SDS011;9052;53.494;14.376;2023-04-25T14:37:27;2.43;;;2.00;;
17852;SDS011;9052;53.494;14.376;2023-04-25T14:39:54;17.20;;;3.23;;
17852;SDS011;9052;53.494;14.376;2023-04-25T14:42:21;8.20;;;2.20;;